Time;durP1;ratioP1;P1;durP2;ratioP2;P2;SDS_P1;SDS_P2;PMS_P1;PMS_P2;Temp;Humidity;BMP_temperature;BMP_pressure;BME280_temperature;BME280_humidity;BME280_pressure;Samples;Min_cycle;Max_cycle;Signal;HPM_P1;HPM_P2
2022/06/03 00:00:09;;;;;;;0.77;0.77;;;11.20;93.90;;;;;;4951786;28;20050;-80
2022/06/03 00:02:58;;;;;;;1.42;1.33;;;11.10;94.40;;;;;;5019587;28;20084;-80
2022/06/03 00:05:51;;;;;;;0.80;0.80;;;11.10;94.20;;;;;;5016338;28;20860;-80
2022/06/03 00:08:59;;;;;;;2.75;1.20;;;11.10;95.00;;;;;;5030080;28;20029;-80
2022/06/03 00:11:43;;;;;;;1.13;1.10;;;11.10;95.70;;;;;;5024841;28;20038;-79
2022/06/03 00:14:18;;;;;;;1.00;1.00;;;11.00;96.30;;;;;;5021370;28;20030;-80
2022/06/03 00:16:56;;;;;;;0.90;0.90;;;11.00;96.70;;;;;;5029070;28;20060;-80
2022/06/03 00:19:25;;;;;;;1.70;0.80;;;11.00;97.10;;;;;;5012607;28;20030;-80
2022/06/03 00:22:08;;;;;;;2.00;1.10;;;10.90;97.50;;;;;;5020724;28;20484;-79
2022/06/03 00:24:55;;;;;;;1.20;1.05;;;10.80;97.70;;;;;;5033333;28;20060;-80
2022/06/03 00:27:36;;;;;;;1.30;1.20;;;10.80;98.20;;;;;;5025034;28;20037;-80
2022/06/03 00:30:20;;;;;;;0.95;0.95;;;10.70;98.40;;;;;;5030420;28;20025;-79
2022/06/03 00:33:16;;;;;;;1.20;1.10;;;10.70;98.40;;;;;;5015217;28;20109;-79
2022/06/03 00:35:42;;;;;;;1.00;0.95;;;10.70;98.70;;;;;;5031586;28;20026;-80
2022/06/03 00:38:33;;;;;;;1.70;1.30;;;10.70;99.00;;;;;;5021080;28;20029;-80
2022/06/03 00:41:32;;;;;;;1.25;1.15;;;10.70;98.70;;;;;;5029636;28;20415;-80
2022/06/03 00:44:29;;;;;;;1.20;1.10;;;10.70;98.50;;;;;;5029835;28;20115;-79
2022/06/03 00:47:06;;;;;;;1.67;1.30;;;10.70;98.50;;;;;;5027867;28;20392;-80
2022/06/03 00:50:07;;;;;;;0.95;0.95;;;10.70;98.80;;;;;;5017461;28;20057;-80
2022/06/03 00:52:51;;;;;;;2.33;1.20;;;10.70;99.80;;;;;;4978042;28;20507;-79
2022/06/03 00:55:28;;;;;;;1.38;1.10;;;10.60;99.90;;;;;;5009698;28;20041;-79
2022/06/03 00:58:15;;;;;;;1.13;1.02;;;10.50;99.90;;;;;;5012151;28;20021;-79
2022/06/03 01:01:09;;;;;;;1.30;1.20;;;10.50;99.90;;;;;;5031539;28;20492;-79
2022/06/03 01:03:54;;;;;;;1.27;1.17;;;10.40;99.90;;;;;;5013735;28;20120;-79
2022/06/03 01:06:29;;;;;;;1.20;1.10;;;10.30;99.90;;;;;;5031867;28;20112;-79
2022/06/03 01:09:34;;;;;;;1.43;1.30;;;10.30;99.90;;;;;;5034181;28;20033;-80
2022/06/03 01:12:17;;;;;;;1.13;1.02;;;10.30;99.90;;;;;;5018769;28;20279;-79
2022/06/03 01:15:01;;;;;;;1.30;1.10;;;10.30;99.90;;;;;;5023144;28;20034;-79
2022/06/03 01:17:46;;;;;;;1.27;1.17;;;10.30;99.90;;;;;;5032693;28;20067;-79
2022/06/03 01:20:23;;;;;;;1.30;1.20;;;10.20;99.90;;;;;;5030208;28;20404;-79
2022/06/03 01:23:08;;;;;;;1.30;1.20;;;10.20;99.90;;;;;;5025243;28;20109;-79
2022/06/03 01:25:55;;;;;;;2.10;1.38;;;10.10;99.90;;;;;;5033111;28;20060;-79
2022/06/03 01:28:50;;;;;;;1.75;1.48;;;10.10;99.90;;;;;;5031901;28;20025;-79
2022/06/03 01:31:53;;;;;;;1.85;1.35;;;10.10;99.90;;;;;;5025148;28;20033;-79
2022/06/03 01:34:34;;;;;;;1.58;1.48;;;10.00;99.90;;;;;;5029103;28;20053;-79
2022/06/03 01:37:21;;;;;;;2.42;1.20;;;10.00;99.90;;;;;;5031124;28;20368;-79
2022/06/03 01:40:21;;;;;;;1.40;1.30;;;9.90;99.90;;;;;;5029917;28;20034;-80
2022/06/03 01:43:11;;;;;;;1.55;1.25;;;9.90;99.90;;;;;;5017550;28;20044;-79
2022/06/03 01:45:50;;;;;;;1.20;1.10;;;9.90;99.90;;;;;;5032525;28;20042;-79
2022/06/03 01:48:29;;;;;;;1.08;1.08;;;10.00;99.90;;;;;;5023767;28;20033;-79
2022/06/03 01:51:01;;;;;;;1.42;1.33;;;10.00;99.90;;;;;;5023046;28;20060;-79
2022/06/03 01:53:52;;;;;;;0.85;0.85;;;10.00;99.90;;;;;;5031252;28;20407;-80
2022/06/03 01:56:38;;;;;;;1.55;1.30;;;9.90;99.90;;;;;;5027015;28;20029;-80
2022/06/03 01:59:22;;;;;;;1.23;1.13;;;9.90;99.90;;;;;;5015037;28;20109;-79
2022/06/03 02:02:18;;;;;;;1.05;1.05;;;9.90;99.90;;;;;;5012540;28;20037;-79
2022/06/03 02:05:17;;;;;;;1.42;1.30;;;9.80;99.90;;;;;;5013142;28;20030;-79
2022/06/03 02:07:58;;;;;;;1.90;1.30;;;9.80;99.90;;;;;;5032526;28;20021;-79
2022/06/03 02:10:36;;;;;;;1.83;1.25;;;9.80;99.90;;;;;;5015943;28;20029;-79
2022/06/03 02:13:16;;;;;;;1.50;1.40;;;9.80;99.90;;;;;;5033521;28;20026;-78
2022/06/03 02:16:03;;;;;;;1.50;1.40;;;9.80;99.90;;;;;;5024110;28;20025;-79
2022/06/03 02:18:47;;;;;;;1.17;1.10;;;9.70;99.90;;;;;;5032494;28;20579;-79
2022/06/03 02:21:34;;;;;;;1.33;1.23;;;9.70;99.90;;;;;;5025880;28;20022;-79
2022/06/03 02:24:18;;;;;;;1.50;1.20;;;9.70;99.90;;;;;;5023747;28;20097;-78
2022/06/03 02:26:50;;;;;;;1.50;1.40;;;9.70;99.90;;;;;;5031548;28;20029;-79
2022/06/03 02:32:47;;;;;;;3.17;1.80;;;9.60;99.90;;;;;;5032824;28;20040;-79
2022/06/03 02:35:56;;;;;;;1.75;1.50;;;9.60;99.90;;;;;;5005713;28;20048;-79
2022/06/03 02:38:43;;;;;;;1.85;1.75;;;9.50;99.90;;;;;;5027816;28;20092;-79
2022/06/03 02:41:51;;;;;;;1.67;1.58;;;9.50;99.90;;;;;;5031940;28;20041;-79
2022/06/03 02:44:31;;;;;;;1.80;1.70;;;9.50;99.90;;;;;;5025029;28;20258;-79
2022/06/03 02:47:22;;;;;;;1.77;1.67;;;9.50;99.90;;;;;;5029098;28;20022;-79
2022/06/03 02:50:09;;;;;;;1.83;1.73;;;9.50;99.90;;;;;;5019890;28;20323;-79
2022/06/03 02:53:08;;;;;;;2.00;1.90;;;9.50;99.90;;;;;;5031345;28;20036;-79
2022/06/03 02:55:49;;;;;;;2.83;2.10;;;9.50;99.90;;;;;;5030745;28;20030;-79
2022/06/03 02:58:52;;;;;;;2.10;1.90;;;9.50;99.90;;;;;;5032982;28;20120;-79
2022/06/03 03:01:40;;;;;;;2.17;2.00;;;9.50;99.90;;;;;;5028791;28;20075;-78
2022/06/03 03:04:33;;;;;;;1.90;1.80;;;9.50;99.90;;;;;;5031546;28;20064;-79
2022/06/03 03:07:09;;;;;;;2.03;1.92;;;9.60;99.90;;;;;;5006674;28;20069;-78
2022/06/03 03:09:55;;;;;;;;;;;9.50;99.90;;;;;;5021310;28;20096;-79
2022/06/03 03:12:39;;;;;;;3.42;1.95;;;9.50;99.90;;;;;;5030880;28;19909;-79
2022/06/03 03:15:20;;;;;;;2.30;2.10;;;9.50;99.90;;;;;;5014295;28;20610;-79
2022/06/03 03:17:52;;;;;;;2.13;1.88;;;9.50;99.90;;;;;;5029801;28;20045;-80
2022/06/03 03:20:49;;;;;;;2.20;2.00;;;9.50;99.90;;;;;;5024135;28;20025;-79
2022/06/03 03:23:16;;;;;;;2.70;2.08;;;9.50;99.90;;;;;;5030754;28;20030;-79
2022/06/03 03:26:14;;;;;;;3.25;2.08;;;9.50;99.90;;;;;;5030594;28;20024;-79
2022/06/03 03:28:45;;;;;;;1.90;1.73;;;9.50;99.90;;;;;;5026491;28;20029;-79
2022/06/03 03:31:29;;;;;;;2.15;1.95;;;9.50;99.90;;;;;;5030699;28;20057;-80
2022/06/03 03:34:30;;;;;;;2.28;2.10;;;9.50;99.90;;;;;;5030563;28;20037;-80
2022/06/03 03:36:59;;;;;;;3.33;2.20;;;9.60;99.90;;;;;;5003436;28;20037;-79
2022/06/03 03:40:02;;;;;;;2.70;2.25;;;9.60;99.90;;;;;;5024205;28;20033;-79
2022/06/03 03:43:06;;;;;;;1.80;1.70;;;9.60;99.90;;;;;;4989910;28;20053;-79
2022/06/03 03:46:09;;;;;;;2.65;1.90;;;9.70;99.90;;;;;;5024324;28;20029;-79
2022/06/03 03:49:03;;;;;;;1.67;1.58;;;9.60;99.90;;;;;;5031285;28;20025;-79
2022/06/03 03:52:05;;;;;;;3.33;2.28;;;9.60;99.90;;;;;;5026284;28;20022;-79
2022/06/03 03:54:46;;;;;;;2.15;1.80;;;9.60;99.90;;;;;;5014468;28;20156;-79
2022/06/03 03:57:33;;;;;;;2.35;2.15;;;9.70;99.90;;;;;;5030131;28;20083;-79
2022/06/03 04:00:26;;;;;;;2.47;2.20;;;9.70;99.90;;;;;;5028971;28;20029;-79
2022/06/03 04:03:10;;;;;;;2.00;1.88;;;9.70;99.90;;;;;;5027387;28;20112;-79
2022/06/03 04:06:01;;;;;;;2.08;1.95;;;9.70;99.90;;;;;;5028800;28;20069;-79
2022/06/03 04:08:36;;;;;;;1.98;1.88;;;9.70;99.90;;;;;;5015676;28;20030;-79
2022/06/03 04:11:42;;;;;;;1.90;1.80;;;9.80;99.90;;;;;;5031374;28;20105;-79
2022/06/03 04:14:32;;;;;;;1.83;1.73;;;9.90;99.90;;;;;;5009840;28;20500;-78
2022/06/03 04:17:23;;;;;;;2.08;1.90;;;9.90;99.90;;;;;;5030745;28;20036;-80
2022/06/03 04:20:06;;;;;;;2.00;1.90;;;10.00;99.90;;;;;;5027452;28;20037;-80
2022/06/03 04:22:51;;;;;;;2.13;1.98;;;10.10;99.90;;;;;;5027983;28;20036;-79
2022/06/03 04:25:32;;;;;;;2.53;2.10;;;10.10;99.90;;;;;;5026171;28;20025;-78
2022/06/03 04:28:15;;;;;;;1.83;1.60;;;10.10;99.90;;;;;;5011105;28;20373;-79
2022/06/03 04:31:03;;;;;;;11.90;7.75;;;10.20;99.90;;;;;;5037944;28;20031;-78
2022/06/03 04:33:53;;;;;;;11.07;6.82;;;10.30;99.90;;;;;;4993746;28;20030;-78
2022/06/03 04:36:38;;;;;;;4.93;3.50;;;10.40;99.90;;;;;;5025784;28;20090;-78
2022/06/03 04:39:41;;;;;;;3.00;2.70;;;10.40;99.90;;;;;;5030757;28;20029;-81
2022/06/03 04:42:53;;;;;;;2.42;2.22;;;10.50;99.90;;;;;;5027521;28;20032;-81
2022/06/03 04:45:55;;;;;;;2.13;1.92;;;10.60;99.90;;;;;;5027150;28;20025;-78
2022/06/03 04:48:55;;;;;;;2.20;2.10;;;10.70;99.90;;;;;;5023395;28;20089;-80
2022/06/03 04:51:58;;;;;;;2.67;2.47;;;10.70;99.90;;;;;;5034822;28;20033;-81
2022/06/03 04:54:58;;;;;;;2.63;2.40;;;10.90;99.90;;;;;;5031441;28;20030;-80
2022/06/03 04:57:43;;;;;;;2.25;1.90;;;11.00;99.90;;;;;;5030730;28;20037;-79
2022/06/03 05:00:21;;;;;;;2.25;2.05;;;11.10;99.90;;;;;;5031956;28;20033;-79
2022/06/03 05:03:14;;;;;;;2.28;2.15;;;11.20;99.90;;;;;;5034536;28;20026;-81
2022/06/03 05:06:14;;;;;;;15.10;8.05;;;11.30;99.90;;;;;;5032554;28;20017;-81
2022/06/03 05:09:18;;;;;;;8.07;5.38;;;11.50;99.90;;;;;;5035754;28;20037;-81
2022/06/03 05:12:06;;;;;;;4.30;3.35;;;11.60;99.90;;;;;;5034162;28;20051;-80
2022/06/03 05:15:03;;;;;;;2.67;2.03;;;11.70;99.90;;;;;;5034278;28;20261;-81
2022/06/03 05:18:03;;;;;;;8.05;5.40;;;12.00;99.90;;;;;;5032622;28;20041;-81
2022/06/03 05:20:35;;;;;;;7.95;5.22;;;12.20;99.90;;;;;;5029477;28;20033;-81
2022/06/03 05:24:05;;;;;;;7.57;4.75;;;12.40;99.90;;;;;;5031672;28;20057;-81
2022/06/03 05:27:09;;;;;;;3.25;2.95;;;12.60;99.90;;;;;;4989336;28;20030;-80
2022/06/03 05:30:09;;;;;;;3.28;2.35;;;13.00;99.90;;;;;;4985743;28;20038;-79
2022/06/03 05:33:18;;;;;;;4.13;2.28;;;13.40;99.90;;;;;;5027646;28;20080;-80
2022/06/03 05:36:28;;;;;;;2.40;2.20;;;14.10;99.90;;;;;;4970849;28;20034;-80
2022/06/03 05:39:15;;;;;;;2.30;2.10;;;14.70;99.90;;;;;;5003334;28;20037;-80
2022/06/03 05:44:52;;;;;;;2.30;1.70;;;15.90;99.90;;;;;;5026661;28;20404;-80
2022/06/03 05:47:29;;;;;;;2.25;2.05;;;16.20;99.70;;;;;;5026248;28;20040;-80
2022/06/03 05:50:07;;;;;;;2.03;1.92;;;16.60;99.20;;;;;;5026575;28;20448;-80
2022/06/03 05:52:44;;;;;;;2.17;2.00;;;16.90;98.80;;;;;;5029978;28;20545;-80
2022/06/03 05:55:19;;;;;;;1.88;1.77;;;17.30;97.90;;;;;;5031069;28;20040;-80
2022/06/03 05:58:21;;;;;;;1.80;1.70;;;17.70;94.80;;;;;;5030448;28;20029;-80
2022/06/03 06:01:24;;;;;;;2.70;2.05;;;17.90;92.40;;;;;;5030467;28;20388;-80
2022/06/03 06:04:08;;;;;;;2.20;2.00;;;18.20;90.30;;;;;;5028038;28;20017;-80
2022/06/03 06:06:36;;;;;;;2.63;1.85;;;18.20;90.40;;;;;;5027337;28;20026;-80
2022/06/03 06:09:20;;;;;;;2.10;2.00;;;18.60;88.30;;;;;;5031113;28;20033;-79
2022/06/03 06:12:04;;;;;;;3.22;2.78;;;18.50;90.10;;;;;;5028949;28;20025;-79
2022/06/03 06:15:02;;;;;;;3.45;2.83;;;18.50;85.90;;;;;;5021953;28;20108;-81
2022/06/03 06:18:10;;;;;;;2.13;1.95;;;18.40;85.90;;;;;;5025537;28;20037;-80
2022/06/03 06:20:54;;;;;;;2.20;2.00;;;18.50;86.50;;;;;;5020252;28;20266;-78
2022/06/03 06:23:36;;;;;;;5.70;2.90;;;18.60;85.30;;;;;;5027592;28;20037;-79
2022/06/03 06:26:40;;;;;;;1.90;1.70;;;18.60;84.50;;;;;;5028453;28;20072;-78
2022/06/03 06:29:40;;;;;;;3.28;2.97;;;18.80;84.20;;;;;;5015586;28;20037;-79
2022/06/03 06:32:30;;;;;;;2.58;2.03;;;18.80;84.00;;;;;;5034743;28;20033;-79
2022/06/03 06:34:58;;;;;;;1.77;1.67;;;19.00;83.30;;;;;;5033021;28;20033;-79
2022/06/03 06:37:52;;;;;;;1.80;1.70;;;19.20;80.70;;;;;;5033209;28;20463;-80
2022/06/03 06:40:26;;;;;;;4.50;2.63;;;19.20;79.90;;;;;;5042070;28;20034;-79
2022/06/03 06:43:08;;;;;;;1.73;1.63;;;19.10;80.50;;;;;;5039491;28;20076;-79
2022/06/03 06:46:16;;;;;;;2.25;1.77;;;19.10;77.60;;;;;;5036425;28;20040;-79
2022/06/03 06:49:06;;;;;;;1.65;1.55;;;19.30;80.90;;;;;;5039010;28;20033;-80
2022/06/03 06:51:47;;;;;;;2.35;2.08;;;19.50;79.10;;;;;;5035440;28;20033;-79
2022/06/03 06:54:27;;;;;;;4.78;2.75;;;19.80;80.40;;;;;;5034829;28;20026;-79
2022/06/03 06:57:14;;;;;;;1.60;1.50;;;20.00;75.90;;;;;;5028979;28;20033;-79
2022/06/03 07:00:14;;;;;;;1.95;1.73;;;20.00;76.60;;;;;;5030849;28;20021;-80
2022/06/03 07:02:56;;;;;;;1.73;1.63;;;20.30;75.40;;;;;;5025573;28;20624;-79
2022/06/03 07:05:40;;;;;;;3.35;3.05;;;20.60;75.40;;;;;;5021212;28;20044;-80
2022/06/03 07:08:09;;;;;;;1.63;1.52;;;20.80;71.50;;;;;;5015485;28;20120;-79
2022/06/03 07:10:51;;;;;;;1.85;1.60;;;20.90;69.60;;;;;;5030431;28;20026;-78
2022/06/03 07:13:17;;;;;;;1.83;1.70;;;21.10;70.40;;;;;;5028133;28;20033;-79
2022/06/03 07:15:58;;;;;;;2.10;1.90;;;21.10;67.50;;;;;;5015250;28;20033;-80
2022/06/03 07:22:08;;;;;;;1.70;1.60;;;21.30;70.40;;;;;;5029494;28;20036;-80
2022/06/03 07:24:57;;;;;;;2.58;1.77;;;21.50;67.30;;;;;;5030744;28;20017;-79
2022/06/03 07:27:29;;;;;;;1.60;1.50;;;21.90;67.40;;;;;;5033816;28;20159;-79
2022/06/03 07:30:03;;;;;;;3.03;2.33;;;22.40;64.80;;;;;;5027634;28;20040;-80
2022/06/03 07:32:42;;;;;;;1.55;1.45;;;22.60;63.60;;;;;;5027141;28;20113;-79
2022/06/03 07:35:26;;;;;;;1.90;1.80;;;22.80;61.80;;;;;;5032540;28;20037;-79
2022/06/03 07:38:15;;;;;;;2.47;1.60;;;22.80;61.40;;;;;;5028159;28;20030;-79
2022/06/03 07:40:48;;;;;;;1.50;1.40;;;22.90;60.90;;;;;;5022648;28;20117;-79
2022/06/03 07:43:35;;;;;;;2.58;1.67;;;23.00;62.90;;;;;;5033578;28;20388;-79
2022/06/03 07:46:25;;;;;;;1.40;1.30;;;23.20;63.10;;;;;;5030522;28;20030;-79
2022/06/03 07:48:51;;;;;;;2.15;1.67;;;23.60;65.20;;;;;;5028095;28;20113;-79
2022/06/03 07:51:26;;;;;;;2.03;1.80;;;23.60;59.50;;;;;;5021811;28;20026;-79
2022/06/03 07:54:05;;;;;;;1.92;1.83;;;23.40;59.90;;;;;;5027928;28;20037;-79
2022/06/03 07:56:34;;;;;;;1.33;1.25;;;23.40;60.10;;;;;;5028661;28;20037;-80
2022/06/03 07:59:04;;;;;;;1.70;1.60;;;23.20;60.40;;;;;;5019338;28;20400;-79
2022/06/03 08:01:43;;;;;;;1.40;1.30;;;23.10;62.50;;;;;;5032435;28;20407;-80
2022/06/03 08:04:25;;;;;;;2.00;1.80;;;23.10;63.50;;;;;;5026972;28;20021;-79
2022/06/03 08:12:29;;;;;;;1.83;1.27;;;23.40;64.30;;;;;;5025654;28;20470;-79
2022/06/03 08:14:55;;;;;;;1.20;1.20;;;23.40;59.10;;;;;;5023432;28;20037;-79
2022/06/03 08:17:23;;;;;;;1.50;1.40;;;23.60;60.20;;;;;;5026853;28;20033;-79
2022/06/03 08:19:50;;;;;;;1.42;1.30;;;23.60;60.50;;;;;;5031329;28;20025;-79
2022/06/03 08:22:23;;;;;;;2.60;1.80;;;23.50;62.40;;;;;;5026318;28;20377;-79
2022/06/03 08:24:56;;;;;;;1.50;1.40;;;23.60;60.20;;;;;;5020768;28;20527;-79
2022/06/03 08:27:30;;;;;;;1.45;1.35;;;23.60;60.70;;;;;;5030149;28;20104;-79
2022/06/03 08:30:05;;;;;;;1.97;1.73;;;23.40;60.00;;;;;;5019993;28;20044;-80
2022/06/03 08:32:44;;;;;;;1.73;1.60;;;23.30;59.90;;;;;;5024667;28;20038;-80
2022/06/03 08:35:15;;;;;;;1.80;1.70;;;23.30;61.00;;;;;;4999481;28;20539;-79
2022/06/03 08:37:44;;;;;;;2.15;1.63;;;23.40;62.10;;;;;;5013548;28;20025;-80
2022/06/03 08:40:34;;;;;;;3.58;1.80;;;23.40;62.90;;;;;;5022549;28;20133;-80
2022/06/03 08:43:12;;;;;;;1.55;1.45;;;23.30;61.00;;;;;;5025912;28;20024;-80
2022/06/03 08:46:02;;;;;;;2.17;1.70;;;23.30;64.50;;;;;;5017473;28;20467;-79
2022/06/03 08:48:38;;;;;;;2.47;1.50;;;23.30;62.10;;;;;;5024343;28;20361;-79
2022/06/03 08:51:11;;;;;;;2.58;1.83;;;23.40;62.90;;;;;;5026305;28;20455;-80
2022/06/03 08:53:37;;;;;;;3.97;1.65;;;23.40;62.10;;;;;;5023775;28;20033;-79
2022/06/03 08:56:10;;;;;;;3.25;1.77;;;23.50;63.50;;;;;;5023934;28;20044;-80
2022/06/03 08:58:36;;;;;;;2.85;1.73;;;23.70;63.70;;;;;;5027153;28;20044;-79
2022/06/03 09:01:05;;;;;;;1.88;1.75;;;23.80;62.80;;;;;;5031372;28;20017;-81
2022/06/03 09:03:45;;;;;;;2.53;2.00;;;23.70;61.10;;;;;;5014330;28;20447;-80
2022/06/03 09:06:39;;;;;;;1.80;1.70;;;23.80;62.30;;;;;;5025778;28;20245;-82
2022/06/03 09:09:31;;;;;;;2.08;1.77;;;24.00;63.40;;;;;;5026758;28;20046;-80
2022/06/03 09:12:13;;;;;;;1.70;1.60;;;24.00;60.60;;;;;;5021737;28;20038;-82
2022/06/03 09:14:43;;;;;;;1.60;1.50;;;23.90;60.80;;;;;;5023515;28;20026;-81
2022/06/03 09:17:33;;;;;;;1.80;1.70;;;23.90;62.40;;;;;;5027129;28;20025;-80
2022/06/03 09:20:04;;;;;;;2.33;1.67;;;23.80;60.80;;;;;;5019790;28;20141;-82
2022/06/03 09:22:34;;;;;;;1.77;1.50;;;23.80;63.20;;;;;;5008955;28;20034;-82
2022/06/03 09:25:04;;;;;;;1.73;1.63;;;23.80;62.40;;;;;;5023270;28;20656;-81
2022/06/03 09:27:30;;;;;;;1.98;1.60;;;23.70;60.90;;;;;;5023452;28;20044;-81
2022/06/03 09:29:59;;;;;;;2.83;1.73;;;23.80;64.00;;;;;;5023072;28;20025;-81
2022/06/03 09:32:26;;;;;;;4.95;1.90;;;23.80;63.20;;;;;;5010633;28;20124;-81
2022/06/03 09:35:01;;;;;;;1.70;1.60;;;23.90;62.90;;;;;;5028240;28;20025;-82
2022/06/03 09:37:30;;;;;;;2.35;2.00;;;23.90;63.30;;;;;;5009736;28;20037;-82
2022/06/03 09:39:57;;;;;;;1.80;1.70;;;23.80;61.50;;;;;;5011239;28;20033;-81
2022/06/03 09:42:25;;;;;;;1.83;1.73;;;23.90;63.30;;;;;;5029467;28;20575;-81
2022/06/03 09:44:52;;;;;;;1.88;1.48;;;23.90;61.50;;;;;;5007830;28;20026;-82
2022/06/03 09:47:20;;;;;;;1.88;1.77;;;23.80;61.20;;;;;;5025860;28;20056;-80
2022/06/03 09:49:49;;;;;;;1.90;1.80;;;23.80;60.60;;;;;;5026642;28;20033;-80
2022/06/03 09:52:19;;;;;;;3.75;1.95;;;23.80;62.70;;;;;;5026602;28;20037;-81
2022/06/03 09:54:47;;;;;;;2.63;2.10;;;23.80;62.80;;;;;;5011512;28;20034;-82
2022/06/03 09:57:23;;;;;;;3.95;1.80;;;23.90;61.90;;;;;;5010019;28;20061;-80
2022/06/03 10:00:08;;;;;;;1.77;1.67;;;23.80;62.10;;;;;;5009505;28;20032;-80
2022/06/03 10:02:44;;;;;;;4.88;1.95;;;23.90;61.10;;;;;;5018857;28;20038;-85
2022/06/03 10:05:15;;;;;;;3.28;2.15;;;23.90;61.40;;;;;;4998207;28;20034;-80
2022/06/03 10:07:43;;;;;;;2.47;2.10;;;23.90;61.30;;;;;;5024535;28;20038;-81
2022/06/03 10:13:05;;;;;;;1.73;1.63;;;23.90;62.30;;;;;;5025208;28;20054;-81
2022/06/03 10:15:40;;;;;;;3.25;1.88;;;23.80;62.30;;;;;;4994777;28;20080;-81
2022/06/03 10:18:29;;;;;;;1.90;1.80;;;23.90;62.90;;;;;;5023906;28;20740;-81
2022/06/03 10:20:58;;;;;;;2.28;2.08;;;24.00;64.10;;;;;;5027128;28;20026;-81
2022/06/03 10:23:32;;;;;;;2.20;2.10;;;24.00;62.30;;;;;;5010030;28;20443;-81
2022/06/03 10:26:01;;;;;;;2.28;2.17;;;24.00;66.00;;;;;;5008628;28;20095;-79
2022/06/03 10:28:36;;;;;;;2.38;1.77;;;24.00;63.10;;;;;;5010441;28;20037;-81
2022/06/03 10:31:15;;;;;;;2.10;1.90;;;24.00;62.20;;;;;;5027969;28;20534;-81
2022/06/03 10:33:55;;;;;;;2.38;2.22;;;24.10;64.70;;;;;;5032363;28;20037;-81
2022/06/03 10:36:55;;;;;;;3.53;2.13;;;24.10;63.10;;;;;;4993102;28;20029;-82
2022/06/03 10:39:27;;;;;;;2.10;2.00;;;24.10;62.20;;;;;;5021822;28;20037;-80
2022/06/03 10:41:57;;;;;;;1.77;1.65;;;24.20;62.10;;;;;;5023720;28;20435;-82
2022/06/03 10:44:26;;;;;;;2.58;2.15;;;24.20;62.00;;;;;;5023224;28;20028;-81
2022/06/03 10:47:02;;;;;;;2.50;2.30;;;24.20;62.70;;;;;;5006753;28;20029;-82
2022/06/03 10:49:30;;;;;;;4.63;1.90;;;24.30;61.50;;;;;;5023228;28;20033;-81
2022/06/03 11:03:07;;;;;;;2.33;2.00;;;24.70;63.30;;;;;;5027455;28;20033;-81
2022/06/03 11:05:37;;;;;;;2.33;2.10;;;24.70;60.70;;;;;;4992490;28;20030;-80
2022/06/03 11:08:10;;;;;;;1.70;1.60;;;24.80;61.70;;;;;;5028038;28;20026;-82
2022/06/03 11:10:43;;;;;;;2.40;1.90;;;25.00;59.70;;;;;;5023649;28;20071;-83
2022/06/03 11:13:11;;;;;;;2.00;1.90;;;25.00;60.70;;;;;;5027712;28;20076;-82
2022/06/03 11:15:42;;;;;;;3.25;1.80;;;25.00;59.70;;;;;;5024459;28;20113;-81
2022/06/03 11:18:26;;;;;;;2.20;2.00;;;25.00;60.30;;;;;;5028908;28;20121;-83
2022/06/03 11:20:53;;;;;;;2.50;2.30;;;25.00;60.60;;;;;;5028105;28;20021;-81
2022/06/03 11:23:20;;;;;;;3.30;2.60;;;25.10;60.50;;;;;;5028092;28;20052;-82
2022/06/03 11:25:53;;;;;;;4.45;2.65;;;25.20;59.40;;;;;;5027724;28;20029;-80
2022/06/03 11:28:39;;;;;;;2.55;1.85;;;25.20;59.70;;;;;;5029118;28;20040;-81
2022/06/03 11:31:20;;;;;;;2.00;1.85;;;25.30;60.10;;;;;;5033396;28;20037;-83
2022/06/03 11:34:10;;;;;;;2.75;1.88;;;25.50;60.50;;;;;;5034430;28;20369;-82
2022/06/03 11:36:42;;;;;;;2.10;1.90;;;25.50;61.10;;;;;;5033275;28;20532;-81
2022/06/03 11:39:09;;;;;;;2.20;1.88;;;25.60;58.30;;;;;;5031497;28;20038;-82
2022/06/03 11:41:44;;;;;;;4.88;1.90;;;25.60;59.20;;;;;;5016851;28;20025;-83
2022/06/03 11:44:25;;;;;;;1.77;1.67;;;25.60;59.80;;;;;;5024245;28;20025;-84
2022/06/03 11:47:05;;;;;;;1.70;1.60;;;25.80;59.00;;;;;;5024714;28;20037;-86
2022/06/03 11:49:33;;;;;;;1.70;1.60;;;25.80;59.60;;;;;;5012051;28;20029;-82
2022/06/03 11:52:00;;;;;;;2.13;1.98;;;25.90;58.90;;;;;;5007692;28;20017;-83
2022/06/03 11:54:27;;;;;;;2.10;1.90;;;25.90;59.80;;;;;;5027122;28;20021;-82
2022/06/03 11:56:54;;;;;;;2.10;1.90;;;26.10;59.30;;;;;;5022557;28;20042;-83
2022/06/03 11:59:52;;;;;;;1.70;1.60;;;26.20;58.80;;;;;;5030256;28;20497;-84
2022/06/03 12:02:41;;;;;;;2.08;1.70;;;26.20;57.60;;;;;;5029374;28;20030;-83
2022/06/03 12:05:14;;;;;;;2.80;1.60;;;26.30;58.50;;;;;;5013517;28;20519;-82
2022/06/03 12:08:03;;;;;;;1.90;1.80;;;26.50;57.60;;;;;;5023270;28;20095;-82
2022/06/03 12:10:55;;;;;;;2.80;1.67;;;26.40;57.10;;;;;;5007892;28;20033;-82
2022/06/03 12:13:30;;;;;;;2.13;1.70;;;26.30;56.80;;;;;;5005898;28;20149;-83
2022/06/03 12:15:56;;;;;;;1.98;1.77;;;26.30;58.30;;;;;;5011245;28;20451;-82
2022/06/03 12:18:31;;;;;;;2.13;1.58;;;26.40;59.40;;;;;;5027707;28;20021;-82
2022/06/03 12:21:00;;;;;;;1.95;1.80;;;26.60;56.20;;;;;;5030891;28;20047;-85
2022/06/03 12:23:25;;;;;;;1.95;1.85;;;26.60;56.70;;;;;;5033480;28;20141;-84
2022/06/03 12:25:51;;;;;;;2.67;2.47;;;26.60;56.90;;;;;;5022737;28;20085;-82
2022/06/03 12:28:25;;;;;;;1.92;1.83;;;26.70;57.10;;;;;;5029978;28;20383;-84
2022/06/03 12:31:06;;;;;;;2.42;1.80;;;26.70;56.90;;;;;;5030905;28;20036;-83
2022/06/03 12:33:47;;;;;;;2.03;1.67;;;26.90;56.20;;;;;;5031073;28;20033;-82
2022/06/03 12:36:40;;;;;;;3.78;3.40;;;27.00;56.80;;;;;;5033081;28;20022;-82
2022/06/03 12:39:09;;;;;;;2.10;1.90;;;27.00;56.30;;;;;;5029930;28;20022;-82
2022/06/03 12:41:44;;;;;;;2.00;1.90;;;27.10;55.00;;;;;;5035522;28;20022;-83
2022/06/03 12:44:36;;;;;;;1.98;1.60;;;27.20;56.20;;;;;;5033240;28;20025;-81
2022/06/03 12:47:26;;;;;;;1.60;1.50;;;27.50;56.40;;;;;;5012242;28;20060;-83
2022/06/03 12:49:57;;;;;;;1.55;1.45;;;27.60;53.90;;;;;;5032669;28;20053;-84
2022/06/03 12:52:26;;;;;;;2.00;1.80;;;27.60;54.30;;;;;;5029550;28;20073;-86
2022/06/03 12:55:00;;;;;;;4.03;1.55;;;27.60;54.00;;;;;;5012679;28;20124;-83
2022/06/03 12:57:28;;;;;;;1.70;1.60;;;27.70;54.40;;;;;;5012858;28;20043;-84
2022/06/03 13:00:07;;;;;;;3.92;1.80;;;27.90;53.50;;;;;;5019791;28;20032;-84
2022/06/03 13:02:51;;;;;;;2.03;1.58;;;27.90;53.30;;;;;;5035124;28;20087;-83
2022/06/03 13:05:45;;;;;;;1.35;1.25;;;28.10;52.70;;;;;;5034064;28;20036;-83
2022/06/03 13:08:27;;;;;;;1.80;1.70;;;28.20;54.80;;;;;;5028846;28;20075;-83
2022/06/03 13:10:58;;;;;;;2.30;1.58;;;28.00;53.00;;;;;;5029362;28;20025;-84
2022/06/03 13:13:30;;;;;;;1.90;1.48;;;28.20;51.70;;;;;;5016835;28;21847;-82
2022/06/03 13:16:24;;;;;;;1.55;1.45;;;28.20;52.40;;;;;;5029568;28;20103;-83
2022/06/03 13:18:56;;;;;;;1.58;1.42;;;28.40;51.60;;;;;;5030157;28;20177;-82
2022/06/03 13:21:25;;;;;;;1.98;1.30;;;28.50;53.20;;;;;;5011405;28;20037;-83
2022/06/03 13:23:51;;;;;;;1.55;1.45;;;28.70;50.90;;;;;;5012622;28;20034;-83
2022/06/03 13:26:20;;;;;;;1.60;1.50;;;28.80;52.70;;;;;;5005832;28;20384;-84
2022/06/03 13:29:07;;;;;;;2.33;1.38;;;28.60;50.60;;;;;;5032401;28;20029;-83
2022/06/03 13:31:41;;;;;;;1.75;1.50;;;28.20;50.50;;;;;;5034194;28;20026;-80
2022/06/03 13:34:10;;;;;;;1.55;1.45;;;27.90;51.50;;;;;;5026414;28;20021;-78
2022/06/03 13:36:49;;;;;;;1.48;1.38;;;27.90;52.00;;;;;;5013932;28;20084;-78
2022/06/03 13:39:24;;;;;;;1.50;1.40;;;27.90;52.80;;;;;;5033580;28;20053;-78
2022/06/03 13:44:46;;;;;;;2.17;1.77;;;27.80;52.30;;;;;;5024761;28;20041;-78
2022/06/03 13:47:21;;;;;;;1.80;1.42;;;27.80;51.80;;;;;;5021903;28;20033;-75
2022/06/03 13:49:51;;;;;;;2.13;2.00;;;27.80;53.70;;;;;;5022706;28;20056;-77
2022/06/03 13:52:46;;;;;;;1.70;1.60;;;27.60;53.80;;;;;;5027440;28;20366;-77
2022/06/03 13:55:26;;;;;;;3.33;1.80;;;27.60;54.00;;;;;;5024820;28;20037;-77
2022/06/03 13:58:15;;;;;;;2.05;1.50;;;27.60;55.30;;;;;;5024823;28;20030;-76
2022/06/03 14:00:50;;;;;;;1.83;1.50;;;27.50;55.20;;;;;;5031372;28;20096;-78
2022/06/03 14:03:31;;;;;;;2.03;1.77;;;27.60;53.90;;;;;;5019962;28;20038;-77
2022/06/03 14:05:58;;;;;;;1.83;1.60;;;27.60;53.50;;;;;;5030779;28;20041;-78
2022/06/03 14:08:40;;;;;;;1.40;1.30;;;27.50;54.50;;;;;;5019607;28;20033;-79
2022/06/03 14:11:12;;;;;;;2.20;1.85;;;27.50;54.30;;;;;;5032475;28;20476;-78
2022/06/03 14:14:00;;;;;;;1.90;1.80;;;27.40;54.90;;;;;;5026463;28;20091;-78
2022/06/03 14:16:39;;;;;;;2.88;2.20;;;27.40;57.40;;;;;;5024305;28;20120;-77
2022/06/03 14:19:08;;;;;;;3.10;1.73;;;27.30;53.40;;;;;;5025076;28;20072;-78
2022/06/03 14:21:42;;;;;;;1.83;1.70;;;27.20;53.70;;;;;;5029584;28;20033;-78
2022/06/03 14:24:31;;;;;;;1.95;1.70;;;27.10;53.80;;;;;;5024403;28;20442;-77
2022/06/03 14:27:19;;;;;;;1.73;1.63;;;27.10;55.00;;;;;;5016096;28;20038;-77
2022/06/03 14:29:49;;;;;;;2.05;1.67;;;27.20;57.90;;;;;;5007708;28;20029;-77
2022/06/03 14:32:23;;;;;;;1.73;1.63;;;27.20;54.00;;;;;;5026056;28;20507;-77
2022/06/03 14:34:53;;;;;;;2.10;2.00;;;27.20;53.30;;;;;;5025243;28;20369;-77